createdAt,value
2023-01-11T00:01:08.835Z,64.32
2023-01-11T00:03:37.607Z,65.29
2023-01-11T00:06:08.517Z,67.50
2023-01-11T00:08:35.609Z,69.20
2023-01-11T00:11:04.132Z,67.79
2023-01-11T00:13:32.235Z,71.19
2023-01-11T00:16:05.027Z,69.42
2023-01-11T00:18:32.380Z,69.30
2023-01-11T00:21:05.277Z,70.81
2023-01-11T00:23:36.576Z,69.85
2023-01-11T00:26:04.533Z,72.68
2023-01-11T00:28:32.795Z,70.83
2023-01-11T00:31:00.157Z,73.73
2023-01-11T00:33:27.325Z,70.93
2023-01-11T00:35:54.518Z,68.65
2023-01-11T00:38:41.139Z,69.71
2023-01-11T00:41:28.370Z,69.25
2023-01-11T00:44:28.390Z,71.18
2023-01-11T00:47:18.102Z,67.01
2023-01-11T00:49:46.134Z,66.38
2023-01-11T00:52:13.248Z,69.27
2023-01-11T00:54:41.976Z,68.92
2023-01-11T00:57:09.162Z,70.46
2023-01-11T00:59:39.515Z,68.77
2023-01-11T01:02:07.101Z,67.47
2023-01-11T01:04:35.635Z,70.12
2023-01-11T01:07:03.259Z,67.40
2023-01-11T01:09:31.000Z,68.20
2023-01-11T01:11:58.642Z,67.23
2023-01-11T01:14:26.020Z,66.15
2023-01-11T01:16:53.967Z,67.00
2023-01-11T01:19:22.436Z,68.22
2023-01-11T01:21:50.413Z,65.46
2023-01-11T01:24:18.087Z,66.11
2023-01-11T01:26:45.951Z,63.02
2023-01-11T01:29:14.750Z,63.29
2023-01-11T01:31:43.563Z,62.45
2023-01-11T01:34:11.174Z,65.51
2023-01-11T01:36:39.616Z,63.55
2023-01-11T01:39:07.382Z,62.62
2023-01-11T01:41:35.980Z,64.27
2023-01-11T01:44:04.862Z,66.04
2023-01-11T01:46:35.334Z,66.64
2023-01-11T01:49:14.180Z,67.01
2023-01-11T01:51:43.477Z,67.95
2023-01-11T01:54:18.174Z,66.87
2023-01-11T01:56:47.680Z,66.76
2023-01-11T01:59:17.541Z,68.86
2023-01-11T02:01:48.996Z,68.40
2023-01-11T02:04:24.650Z,69.42
2023-01-11T02:07:03.700Z,70.12
2023-01-11T02:09:49.816Z,70.05
2023-01-11T02:12:18.538Z,71.92
2023-01-11T02:14:48.398Z,71.70
2023-01-11T02:17:17.305Z,72.80
2023-01-11T02:19:52.263Z,74.05
2023-01-11T02:22:23.029Z,70.94
2023-01-11T02:25:03.038Z,72.91
2023-01-11T02:27:50.442Z,76.62
2023-01-11T02:30:17.521Z,75.15
2023-01-11T02:32:54.789Z,77.50
2023-01-11T02:35:35.877Z,78.31
2023-01-11T02:38:14.394Z,74.37
2023-01-11T02:40:41.718Z,73.71
2023-01-11T02:43:33.614Z,72.92
2023-01-11T02:46:10.437Z,73.34
2023-01-11T02:48:47.294Z,74.28
2023-01-11T02:51:36.015Z,74.85
2023-01-11T02:54:11.634Z,72.41
2023-01-11T02:56:45.169Z,70.70
2023-01-11T02:59:15.504Z,71.39
2023-01-11T03:02:00.972Z,72.79
2023-01-11T03:04:30.858Z,72.68
2023-01-11T03:07:25.140Z,74.74
2023-01-11T03:10:19.215Z,70.73
2023-01-11T03:13:05.624Z,73.00
2023-01-11T03:15:56.347Z,74.72
2023-01-11T03:18:36.937Z,73.12
2023-01-11T03:21:10.121Z,70.22
2023-01-11T03:23:52.399Z,73.34
2023-01-11T03:26:22.304Z,72.27
2023-01-11T03:29:00.491Z,73.21
2023-01-11T03:31:32.961Z,73.58
2023-01-11T03:34:15.662Z,72.58
2023-01-11T03:36:42.731Z,72.84
2023-01-11T03:39:09.794Z,74.19
2023-01-11T03:41:38.906Z,75.38
2023-01-11T03:44:07.927Z,75.47
2023-01-11T03:46:40.095Z,75.78
2023-01-11T03:49:13.706Z,76.45
2023-01-11T03:51:42.600Z,74.42
2023-01-11T03:54:11.535Z,77.19
2023-01-11T03:56:43.718Z,76.79
2023-01-11T03:59:11.498Z,77.40
2023-01-11T04:01:39.150Z,78.56
2023-01-11T04:04:06.401Z,80.83
2023-01-11T04:06:36.293Z,76.64
2023-01-11T04:09:03.874Z,74.32
2023-01-11T04:11:31.053Z,74.00
2023-01-11T04:13:58.173Z,75.84
2023-01-11T04:16:25.433Z,76.65
2023-01-11T04:18:52.614Z,75.59
2023-01-11T04:21:21.225Z,75.05
2023-01-11T04:23:48.574Z,76.74
2023-01-11T04:26:17.577Z,77.86
2023-01-11T04:28:44.973Z,76.10
2023-01-11T04:31:12.150Z,74.05
2023-01-11T04:33:40.085Z,73.22
2023-01-11T04:36:08.282Z,76.58
2023-01-11T04:38:36.099Z,74.95
2023-01-11T04:41:26.378Z,72.26
2023-01-11T04:43:54.377Z,71.71
2023-01-11T04:46:21.688Z,71.93
2023-01-11T04:48:48.852Z,73.86
2023-01-11T04:51:17.263Z,72.47
2023-01-11T04:53:46.534Z,73.53
2023-01-11T04:56:13.855Z,74.02
2023-01-11T04:58:41.205Z,73.33
2023-01-11T05:01:12.192Z,71.79
2023-01-11T05:03:40.961Z,73.97
2023-01-11T05:06:08.472Z,73.97
2023-01-11T05:08:35.751Z,72.65
2023-01-11T05:11:05.846Z,72.37
2023-01-11T05:13:42.703Z,75.35
2023-01-11T05:16:18.774Z,74.48
2023-01-11T05:18:46.116Z,72.91
2023-01-11T05:21:15.470Z,74.93
2023-01-11T05:23:44.557Z,74.58
2023-01-11T05:26:14.266Z,71.99
2023-01-11T05:28:42.333Z,78.66
2023-01-11T05:31:09.464Z,75.04
2023-01-11T05:33:36.799Z,77.31
2023-01-11T05:36:11.370Z,76.46
2023-01-11T05:38:40.262Z,74.71
2023-01-11T05:41:09.011Z,73.39
2023-01-11T05:43:55.564Z,73.66
2023-01-11T05:46:23.405Z,77.93
2023-01-11T05:48:50.689Z,76.31
2023-01-11T05:51:18.428Z,76.43
2023-01-11T05:53:45.713Z,77.66
2023-01-11T05:56:12.958Z,79.39
2023-01-11T05:58:41.064Z,79.25
2023-01-11T06:01:13.342Z,81.12
2023-01-11T06:03:40.488Z,79.98
2023-01-11T06:06:08.037Z,78.85
2023-01-11T06:08:35.643Z,81.92
2023-01-11T06:11:04.212Z,84.74
2023-01-11T06:13:34.940Z,84.46
2023-01-11T06:16:04.195Z,83.86
2023-01-11T06:18:39.548Z,84.80
2023-01-11T06:21:07.135Z,83.68
2023-01-11T06:23:36.285Z,84.02
2023-01-11T06:26:04.869Z,82.14
2023-01-11T06:28:32.087Z,83.79
2023-01-11T06:30:59.740Z,82.31
2023-01-11T06:33:28.082Z,79.75
2023-01-11T06:35:56.823Z,80.53
2023-01-11T06:38:24.615Z,80.76
2023-01-11T06:40:57.547Z,80.71
2023-01-11T06:43:28.556Z,82.18
2023-01-11T06:45:59.722Z,82.06
2023-01-11T06:48:27.367Z,83.25
2023-01-11T06:50:57.753Z,83.01
2023-01-11T06:53:28.401Z,83.66
2023-01-11T06:55:57.280Z,85.08
2023-01-11T06:58:27.963Z,84.28
2023-01-11T07:00:59.121Z,82.80
2023-01-11T07:03:26.386Z,83.52
2023-01-11T07:05:56.568Z,84.05
2023-01-11T07:08:25.982Z,84.68
2023-01-11T07:10:53.862Z,82.78
2023-01-11T07:13:22.467Z,83.08
2023-01-11T07:15:50.995Z,82.95
2023-01-11T07:18:21.456Z,79.34
2023-01-11T07:20:50.201Z,85.14
2023-01-11T07:23:17.238Z,83.20
2023-01-11T07:25:45.317Z,85.08
2023-01-11T07:28:13.285Z,85.84
2023-01-11T07:31:09.048Z,84.40
2023-01-11T07:33:29.151Z,86.03
2023-01-11T07:35:58.010Z,84.44
2023-01-11T07:38:26.681Z,83.24
2023-01-11T07:40:54.161Z,84.37
2023-01-11T07:43:23.460Z,82.50
2023-01-11T07:45:51.799Z,85.05
2023-01-11T07:48:21.323Z,84.85
2023-01-11T07:50:48.975Z,83.30
2023-01-11T07:53:16.408Z,83.05
2023-01-11T07:55:43.759Z,84.43
2023-01-11T07:58:36.337Z,82.62
2023-01-11T08:01:04.319Z,83.88
2023-01-11T08:03:31.697Z,84.07
2023-01-11T08:05:59.069Z,81.86
2023-01-11T08:08:26.687Z,81.25
2023-01-11T08:11:13.035Z,80.44
2023-01-11T08:13:58.955Z,80.63
2023-01-11T08:16:27.326Z,79.71
2023-01-11T08:18:54.668Z,78.40
2023-01-11T08:21:21.894Z,77.13
2023-01-11T08:23:49.059Z,75.74
2023-01-11T08:26:17.964Z,77.18
2023-01-11T08:28:45.643Z,78.49
2023-01-11T08:31:12.893Z,79.74
2023-01-11T08:33:40.269Z,76.30
2023-01-11T08:36:08.606Z,72.31
2023-01-11T08:38:36.059Z,72.06
2023-01-11T08:41:10.671Z,68.89
2023-01-11T08:43:38.727Z,67.12
2023-01-11T08:46:06.057Z,65.87
2023-01-11T08:48:33.321Z,65.20
2023-01-11T08:51:00.391Z,64.72
2023-01-11T08:53:27.694Z,64.47
2023-01-11T08:55:54.857Z,64.74
2023-01-11T08:58:22.063Z,62.04
2023-01-11T09:00:49.256Z,61.31
2023-01-11T09:03:16.496Z,61.96
2023-01-11T09:05:43.638Z,62.22
2023-01-11T09:08:12.917Z,60.86
2023-01-11T09:10:40.354Z,60.00
2023-01-11T09:13:07.985Z,58.22
2023-01-11T09:15:35.397Z,56.88
2023-01-11T09:18:03.751Z,55.02
2023-01-11T09:20:32.682Z,53.06
2023-01-11T09:23:00.904Z,51.16
2023-01-11T09:25:28.547Z,51.12
2023-01-11T09:27:55.771Z,50.62
2023-01-11T09:30:26.672Z,49.23
2023-01-11T09:32:55.214Z,50.91
2023-01-11T09:35:22.744Z,51.98
2023-01-11T09:37:51.381Z,53.26
2023-01-11T09:40:23.418Z,55.26
2023-01-11T09:42:52.829Z,53.84
2023-01-11T09:45:21.896Z,53.86
2023-01-11T09:47:48.988Z,55.79
2023-01-11T09:50:20.789Z,54.35
2023-01-11T09:53:10.634Z,50.70
2023-01-11T09:55:42.431Z,48.24
2023-01-11T09:58:29.265Z,47.36
2023-01-11T10:00:56.523Z,46.08
2023-01-11T10:03:53.341Z,45.46
2023-01-11T10:06:23.131Z,44.52
2023-01-11T10:18:25.787Z,40.71
2023-01-11T10:18:30.648Z,39.12
2023-01-11T10:21:04.965Z,40.98
2023-01-11T10:23:47.355Z,42.00
2023-01-11T10:26:37.364Z,42.13
2023-01-11T10:29:28.421Z,42.35
2023-01-11T10:32:06.397Z,41.43
2023-01-11T10:34:59.237Z,42.78
2023-01-11T10:37:50.189Z,42.69
2023-01-11T10:40:55.994Z,40.52
2023-01-11T10:43:26.090Z,41.31
2023-01-11T10:45:55.970Z,41.64
2023-01-11T10:48:29.169Z,41.01
2023-01-11T10:51:00.727Z,41.45
2023-01-11T10:53:39.062Z,42.76
2023-01-11T10:56:18.262Z,41.08
2023-01-11T10:58:46.549Z,41.68
2023-01-11T11:01:21.272Z,40.03
2023-01-11T11:03:57.269Z,41.21
2023-01-11T11:06:33.582Z,41.36
2023-01-11T11:09:10.197Z,42.41
2023-01-11T11:11:49.101Z,41.98
2023-01-11T11:14:46.724Z,42.00
2023-01-11T11:17:24.340Z,42.60
2023-01-11T11:19:52.414Z,41.96
2023-01-11T11:22:21.084Z,43.16
2023-01-11T11:25:22.887Z,41.89
2023-01-11T11:27:59.579Z,42.54
2023-01-11T11:30:39.052Z,40.97
2023-01-11T11:33:14.066Z,41.34
2023-01-11T11:35:42.877Z,41.79
2023-01-11T11:38:23.940Z,40.09
2023-01-11T11:40:59.141Z,41.99
2023-01-11T11:43:27.572Z,42.82
2023-01-11T11:46:00.009Z,43.44
2023-01-11T11:48:29.113Z,42.91
2023-01-11T11:50:57.478Z,44.11
2023-01-11T11:53:44.689Z,42.93
2023-01-11T11:56:14.861Z,44.65
2023-01-11T11:58:43.634Z,43.56
2023-01-11T12:01:29.468Z,43.04
2023-01-11T12:04:01.659Z,44.93
2023-01-11T12:06:30.144Z,43.30
2023-01-11T12:09:00.790Z,44.15
2023-01-11T12:11:42.210Z,44.60
2023-01-11T12:14:12.458Z,44.74
2023-01-11T12:17:30.082Z,45.45
2023-01-11T12:19:58.911Z,43.80
2023-01-11T12:22:29.631Z,45.55
2023-01-11T12:25:21.522Z,43.11
2023-01-11T12:27:49.733Z,44.37
2023-01-11T12:30:20.294Z,43.25
2023-01-11T12:33:00.013Z,43.55
2023-01-11T12:35:33.751Z,43.84
2023-01-11T12:38:00.917Z,44.06
2023-01-11T12:40:30.995Z,43.83
2023-01-11T12:43:10.773Z,45.06
2023-01-11T12:45:44.019Z,43.93
2023-01-11T12:48:19.954Z,44.82
2023-01-11T12:50:53.299Z,44.86
2023-01-11T12:53:23.596Z,46.38
2023-01-11T12:55:50.655Z,47.38
2023-01-11T12:58:20.859Z,46.83
2023-01-11T13:00:54.137Z,46.42
2023-01-11T13:03:34.299Z,47.35
2023-01-11T13:06:20.268Z,46.56
2023-01-11T13:08:59.151Z,48.43
2023-01-11T13:11:35.471Z,46.85
2023-01-11T13:14:10.358Z,46.67
2023-01-11T13:16:49.286Z,45.89
2023-01-11T13:19:23.483Z,45.78
2023-01-11T13:21:53.607Z,46.24
2023-01-11T13:24:26.343Z,44.91
2023-01-11T13:27:06.280Z,45.94
2023-01-11T13:29:50.496Z,45.53
2023-01-11T13:32:20.068Z,47.35
2023-01-11T13:34:53.170Z,47.24
2023-01-11T13:37:20.309Z,49.00
2023-01-11T13:39:47.565Z,50.14
2023-01-11T13:42:21.455Z,48.59
2023-01-11T13:45:11.759Z,49.63
2023-01-11T13:47:48.692Z,50.24
2023-01-11T13:50:15.790Z,49.21
2023-01-11T13:52:52.237Z,49.53
2023-01-11T13:55:38.449Z,48.03
2023-01-11T13:58:28.909Z,47.31
2023-01-11T14:00:56.021Z,47.83
2023-01-11T14:03:23.096Z,49.05
2023-01-11T14:05:56.295Z,49.90
2023-01-11T14:08:23.481Z,50.20
2023-01-11T14:10:50.668Z,52.21
2023-01-11T14:13:48.886Z,52.97
2023-01-11T14:16:33.819Z,52.34
2023-01-11T14:19:03.984Z,54.53
2023-01-11T14:21:47.719Z,54.11
2023-01-11T14:24:18.061Z,54.97
2023-01-11T14:26:54.473Z,56.79
2023-01-11T14:29:38.854Z,57.67
2023-01-11T14:32:24.715Z,56.93
2023-01-11T14:35:08.673Z,55.69
2023-01-11T14:37:54.688Z,54.34
2023-01-11T14:40:40.684Z,55.19
2023-01-11T14:43:17.031Z,56.34
2023-01-11T14:45:44.203Z,56.50
2023-01-11T14:48:17.450Z,56.74
2023-01-11T14:50:44.914Z,57.95
2023-01-11T14:53:16.152Z,57.01
2023-01-11T14:55:45.077Z,58.49
2023-01-11T14:58:15.127Z,59.76
2023-01-11T15:00:42.683Z,61.52
2023-01-11T15:03:09.693Z,62.75
2023-01-11T15:05:57.157Z,64.83
2023-01-11T15:08:25.598Z,66.39
2023-01-11T15:10:56.365Z,68.29
2023-01-11T15:13:25.362Z,69.13
2023-01-11T15:16:24.379Z,69.47
2023-01-11T15:18:51.689Z,68.50
2023-01-11T15:21:21.440Z,70.23
2023-01-11T15:23:50.685Z,72.04
2023-01-11T15:26:18.782Z,71.86
2023-01-11T15:28:56.282Z,70.50
2023-01-11T15:31:33.963Z,70.91
2023-01-11T15:34:03.158Z,70.63
2023-01-11T15:36:48.993Z,74.84
2023-01-11T15:39:17.305Z,74.70
2023-01-11T15:42:05.843Z,75.48
2023-01-11T15:44:51.749Z,74.86
2023-01-11T15:47:28.037Z,74.09
2023-01-11T15:50:13.495Z,75.95
2023-01-11T15:52:59.229Z,77.31
2023-01-11T15:55:32.477Z,78.55
2023-01-11T15:58:02.972Z,79.33
2023-01-11T16:00:48.832Z,79.65
2023-01-11T16:03:35.086Z,78.74
2023-01-11T16:06:21.176Z,78.49
2023-01-11T16:08:48.347Z,79.47
2023-01-11T16:11:28.561Z,79.25
2023-01-11T16:14:14.407Z,82.18
2023-01-11T16:16:43.141Z,81.90
2023-01-11T16:19:17.049Z,81.21
2023-01-11T16:21:45.311Z,81.31
2023-01-11T16:24:23.808Z,83.01
2023-01-11T16:26:55.720Z,81.35
2023-01-11T16:29:24.729Z,82.08
2023-01-11T16:31:54.922Z,82.79
2023-01-11T16:34:22.270Z,80.70
2023-01-11T16:36:49.502Z,80.41
2023-01-11T16:39:20.080Z,80.91
2023-01-11T16:41:51.944Z,81.38
2023-01-11T16:44:27.636Z,81.66
2023-01-11T16:47:05.952Z,81.36
2023-01-11T16:49:33.555Z,83.26
2023-01-11T16:52:00.713Z,81.04
2023-01-11T16:54:30.799Z,82.61
2023-01-11T16:56:59.148Z,82.87
2023-01-11T16:59:30.474Z,82.01
2023-01-11T17:02:01.802Z,82.74
2023-01-11T17:04:29.078Z,83.71
2023-01-11T17:06:56.786Z,82.67
2023-01-11T17:09:26.147Z,84.04
2023-01-11T17:11:53.436Z,83.82
2023-01-11T17:14:29.988Z,84.71
2023-01-11T17:17:01.432Z,83.91
2023-01-11T17:19:31.168Z,84.52
2023-01-11T17:21:58.521Z,87.13
2023-01-11T17:24:27.057Z,85.68
2023-01-11T17:26:57.060Z,85.84
2023-01-11T17:29:30.203Z,86.29
2023-01-11T17:31:58.791Z,86.08
2023-01-11T17:34:27.816Z,85.72
2023-01-11T17:36:56.377Z,84.53
2023-01-11T17:39:32.460Z,85.58
2023-01-11T17:42:23.345Z,86.11
2023-01-11T17:45:10.501Z,86.69
2023-01-11T17:47:38.966Z,86.16
2023-01-11T17:50:06.648Z,85.69
2023-01-11T17:52:43.767Z,83.99
2023-01-11T17:55:21.810Z,84.25
2023-01-11T17:58:07.694Z,85.50
2023-01-11T18:00:34.897Z,86.09
2023-01-11T18:03:08.132Z,86.55
2023-01-11T18:05:35.645Z,84.75
2023-01-11T18:08:09.561Z,84.76
2023-01-11T18:10:39.312Z,85.84
2023-01-11T18:13:06.512Z,87.07
2023-01-11T18:15:34.653Z,85.18
2023-01-11T18:18:01.855Z,85.16
2023-01-11T18:20:28.877Z,88.05
2023-01-11T18:23:05.281Z,87.53
2023-01-11T18:25:34.940Z,87.21
2023-01-11T18:28:11.295Z,86.74
2023-01-11T18:30:42.001Z,85.74
2023-01-11T18:33:15.867Z,85.49
2023-01-11T18:35:46.735Z,86.76
2023-01-11T18:38:15.468Z,87.42
2023-01-11T18:40:43.861Z,86.56
2023-01-11T18:43:12.590Z,86.87
2023-01-11T18:45:41.596Z,86.15
2023-01-11T18:48:13.376Z,84.84
2023-01-11T18:50:43.361Z,86.69
2023-01-11T18:53:11.424Z,88.89
2023-01-11T18:55:38.876Z,86.22
2023-01-11T18:58:07.082Z,86.88
2023-01-11T19:00:34.990Z,85.48
2023-01-11T19:03:03.289Z,85.77
2023-01-11T19:05:30.923Z,88.79
2023-01-11T19:07:58.173Z,88.20
2023-01-11T19:10:25.340Z,88.17
2023-01-11T19:12:52.495Z,85.86
2023-01-11T19:15:20.523Z,88.66
2023-01-11T19:17:48.455Z,88.16
2023-01-11T19:20:17.373Z,88.71
2023-01-11T19:22:45.299Z,87.42
2023-01-11T19:25:12.941Z,85.67
2023-01-11T19:27:40.313Z,87.66
2023-01-11T19:30:08.783Z,86.09
2023-01-11T19:32:36.135Z,87.33
2023-01-11T19:35:03.403Z,84.62
2023-01-11T19:37:31.828Z,86.80
2023-01-11T19:39:59.126Z,86.35
2023-01-11T19:42:26.660Z,89.24
2023-01-11T19:44:54.857Z,87.19
2023-01-11T19:47:22.282Z,89.33
2023-01-11T19:49:51.447Z,89.62
2023-01-11T19:52:22.384Z,88.17
2023-01-11T19:54:53.457Z,89.56
2023-01-11T19:57:22.886Z,87.06
2023-01-11T19:59:50.931Z,89.59
2023-01-11T20:02:19.934Z,85.81
2023-01-11T20:04:47.266Z,88.26
2023-01-11T20:07:16.654Z,88.70
2023-01-11T20:09:44.430Z,86.98
2023-01-11T20:12:12.958Z,87.99
2023-01-11T20:14:40.912Z,85.03
2023-01-11T20:17:08.190Z,86.05
2023-01-11T20:19:37.495Z,86.83
2023-01-11T20:22:05.101Z,88.66
2023-01-11T20:24:32.503Z,88.21
2023-01-11T20:27:00.678Z,85.69
2023-01-11T20:29:28.208Z,87.87
2023-01-11T20:31:55.858Z,86.36
2023-01-11T20:34:24.016Z,85.01
2023-01-11T20:36:51.783Z,83.06
2023-01-11T20:39:19.150Z,82.36
2023-01-11T20:41:50.950Z,85.53
2023-01-11T20:44:22.263Z,85.09
2023-01-11T20:46:50.343Z,85.13
2023-01-11T20:49:18.415Z,84.11
2023-01-11T20:51:46.774Z,81.08
2023-01-11T20:54:17.936Z,78.93
2023-01-11T20:56:50.181Z,76.28
2023-01-11T20:59:20.161Z,78.33
2023-01-11T21:01:48.421Z,80.91
2023-01-11T21:04:17.974Z,81.17
2023-01-11T21:06:46.239Z,82.95
2023-01-11T21:09:15.913Z,79.59
2023-01-11T21:11:44.270Z,81.21
2023-01-11T21:14:14.252Z,80.18
2023-01-11T21:16:42.951Z,80.39
2023-01-11T21:19:11.282Z,81.91
2023-01-11T21:21:38.939Z,80.22
2023-01-11T21:24:08.541Z,78.56
2023-01-11T21:26:35.981Z,76.79
2023-01-11T21:29:04.788Z,81.05
2023-01-11T21:31:33.578Z,80.46
2023-01-11T21:34:01.208Z,81.08
2023-01-11T21:36:30.315Z,77.92
2023-01-11T21:38:58.861Z,80.93
2023-01-11T21:41:47.719Z,80.45
2023-01-11T21:44:16.495Z,76.04
2023-01-11T21:46:43.771Z,78.09
2023-01-11T21:49:11.580Z,80.53
2023-01-11T21:51:39.462Z,81.22
2023-01-11T21:54:14.420Z,80.79
2023-01-11T21:56:44.601Z,80.35
2023-01-11T21:59:13.364Z,80.50
2023-01-11T22:01:42.060Z,81.46
2023-01-11T22:04:11.205Z,82.08
2023-01-11T22:06:40.098Z,84.27
2023-01-11T22:09:11.160Z,82.69
2023-01-11T22:11:38.559Z,82.00
2023-01-11T22:14:08.649Z,81.40
2023-01-11T22:16:37.840Z,77.22
2023-01-11T22:19:08.615Z,80.08
2023-01-11T22:21:37.164Z,85.09
2023-01-11T22:24:05.869Z,90.27
2023-01-11T22:26:39.461Z,91.06
2023-01-11T22:29:16.883Z,93.68
2023-01-11T22:31:49.696Z,94.38
2023-01-11T22:34:17.606Z,96.37
2023-01-11T22:36:45.280Z,98.72
2023-01-11T22:39:14.008Z,100.00
2023-01-11T22:41:41.193Z,100.00
2023-01-11T22:44:10.827Z,100.00
2023-01-11T22:46:39.751Z,100.00
2023-01-11T22:49:07.647Z,100.00
2023-01-11T22:51:35.556Z,100.00
2023-01-11T22:54:03.488Z,100.00
2023-01-11T22:56:30.658Z,100.00
2023-01-11T22:58:57.813Z,100.00
2023-01-11T23:01:35.367Z,100.00
2023-01-11T23:04:04.236Z,94.55
2023-01-11T23:06:36.056Z,98.02
2023-01-11T23:09:05.064Z,100.00
2023-01-11T23:11:56.514Z,89.26
2023-01-11T23:14:27.846Z,79.56
2023-01-11T23:16:55.127Z,80.51
2023-01-11T23:19:22.673Z,77.52
2023-01-11T23:21:50.596Z,77.76
2023-01-11T23:24:19.237Z,79.78
2023-01-11T23:26:46.950Z,78.44
2023-01-11T23:29:14.646Z,74.85
2023-01-11T23:31:43.080Z,74.26
2023-01-11T23:34:11.587Z,74.65
2023-01-11T23:36:40.192Z,72.92
2023-01-11T23:39:10.036Z,75.50
2023-01-11T23:41:55.562Z,74.98
2023-01-11T23:44:22.888Z,73.85
2023-01-11T23:47:09.128Z,71.78
2023-01-11T23:49:36.708Z,71.10
2023-01-11T23:52:04.616Z,70.21
2023-01-11T23:54:32.837Z,71.62
2023-01-11T23:57:02.033Z,75.68
2023-01-11T23:59:29.873Z,78.45
